sensor_id;sensor_type;location;lat;lon;timestamp;P1;durP1;ratioP1;P2;durP2;ratioP2
26598;SDS011;14240;51.064;16.612;2022-08-01T00:00:33;13.32;;;11.65;;
26598;SDS011;14240;51.064;16.612;2022-08-01T00:02:58;13.43;;;11.10;;
26598;SDS011;14240;51.064;16.612;2022-08-01T00:05:24;12.23;;;11.02;;
26598;SDS011;14240;51.064;16.612;2022-08-01T00:07:49;16.02;;;11.98;;
26598;SDS011;14240;51.064;16.612;2022-08-01T00:10:16;14.13;;;11.93;;
26598;SDS011;14240;51.064;16.612;2022-08-01T00:12:43;13.00;;;11.18;;
26598;SDS011;14240;51.064;16.612;2022-08-01T00:15:11;15.80;;;11.93;;
26598;SDS011;14240;51.064;16.612;2022-08-01T00:17:38;15.30;;;11.57;;
26598;SDS011;14240;51.064;16.612;2022-08-01T00:20:05;13.70;;;12.02;;
26598;SDS011;14240;51.064;16.612;2022-08-01T00:22:33;13.50;;;11.07;;
26598;SDS011;14240;51.064;16.612;2022-08-01T00:24:59;16.63;;;12.88;;
26598;SDS011;14240;51.064;16.612;2022-08-01T00:27:24;13.75;;;11.70;;
26598;SDS011;14240;51.064;16.612;2022-08-01T00:29:50;20.83;;;13.68;;
26598;SDS011;14240;51.064;16.612;2022-08-01T00:32:16;16.80;;;11.93;;
26598;SDS011;14240;51.064;16.612;2022-08-01T00:34:41;16.35;;;12.88;;
26598;SDS011;14240;51.064;16.612;2022-08-01T00:37:07;18.08;;;11.77;;
26598;SDS011;14240;51.064;16.612;2022-08-01T00:39:33;18.00;;;12.82;;
26598;SDS011;14240;51.064;16.612;2022-08-01T00:41:59;16.77;;;13.70;;
26598;SDS011;14240;51.064;16.612;2022-08-01T00:44:25;18.92;;;13.05;;
26598;SDS011;14240;51.064;16.612;2022-08-01T00:46:51;18.00;;;12.70;;
26598;SDS011;14240;51.064;16.612;2022-08-01T00:49:16;17.65;;;12.50;;
26598;SDS011;14240;51.064;16.612;2022-08-01T00:51:42;14.38;;;12.88;;
26598;SDS011;14240;51.064;16.612;2022-08-01T00:54:08;18.80;;;12.90;;
26598;SDS011;14240;51.064;16.612;2022-08-01T00:56:34;16.65;;;12.30;;
26598;SDS011;14240;51.064;16.612;2022-08-01T00:58:59;16.02;;;12.10;;
26598;SDS011;14240;51.064;16.612;2022-08-01T01:01:25;17.80;;;12.02;;
26598;SDS011;14240;51.064;16.612;2022-08-01T01:03:51;16.05;;;11.73;;
26598;SDS011;14240;51.064;16.612;2022-08-01T01:11:40;22.33;;;13.32;;
26598;SDS011;14240;51.064;16.612;2022-08-01T01:14:37;22.55;;;13.55;;
26598;SDS011;14240;51.064;16.612;2022-08-01T01:17:11;24.08;;;12.93;;
26598;SDS011;14240;51.064;16.612;2022-08-01T01:19:45;18.08;;;12.75;;
26598;SDS011;14240;51.064;16.612;2022-08-01T01:27:39;18.75;;;13.45;;
26598;SDS011;14240;51.064;16.612;2022-08-01T01:30:08;20.73;;;13.07;;
26598;SDS011;14240;51.064;16.612;2022-08-01T01:32:44;17.33;;;14.18;;
26598;SDS011;14240;51.064;16.612;2022-08-01T01:35:14;21.67;;;13.35;;
26598;SDS011;14240;51.064;16.612;2022-08-01T01:37:45;19.80;;;13.15;;
26598;SDS011;14240;51.064;16.612;2022-08-01T01:42:39;18.35;;;11.73;;
26598;SDS011;14240;51.064;16.612;2022-08-01T01:45:07;17.58;;;12.05;;
26598;SDS011;14240;51.064;16.612;2022-08-01T01:47:33;18.75;;;13.05;;
26598;SDS011;14240;51.064;16.612;2022-08-01T01:50:01;18.33;;;12.27;;
26598;SDS011;14240;51.064;16.612;2022-08-01T01:52:28;20.35;;;13.63;;
26598;SDS011;14240;51.064;16.612;2022-08-01T01:54:55;20.88;;;13.07;;
26598;SDS011;14240;51.064;16.612;2022-08-01T01:57:23;19.88;;;13.43;;
26598;SDS011;14240;51.064;16.612;2022-08-01T01:59:49;17.98;;;13.55;;
26598;SDS011;14240;51.064;16.612;2022-08-01T02:02:16;20.13;;;12.38;;
26598;SDS011;14240;51.064;16.612;2022-08-01T02:04:43;20.67;;;13.50;;
26598;SDS011;14240;51.064;16.612;2022-08-01T02:07:12;19.45;;;13.82;;
26598;SDS011;14240;51.064;16.612;2022-08-01T02:09:42;19.27;;;13.95;;
26598;SDS011;14240;51.064;16.612;2022-08-01T02:12:12;24.77;;;13.75;;
26598;SDS011;14240;51.064;16.612;2022-08-01T02:14:39;21.92;;;14.25;;
26598;SDS011;14240;51.064;16.612;2022-08-01T02:17:05;24.17;;;15.43;;
26598;SDS011;14240;51.064;16.612;2022-08-01T02:19:34;18.73;;;15.02;;
26598;SDS011;14240;51.064;16.612;2022-08-01T02:22:01;21.27;;;15.90;;
26598;SDS011;14240;51.064;16.612;2022-08-01T02:27:40;19.42;;;14.55;;
26598;SDS011;14240;51.064;16.612;2022-08-01T02:30:13;18.23;;;15.05;;
26598;SDS011;14240;51.064;16.612;2022-08-01T02:32:44;25.67;;;13.88;;
26598;SDS011;14240;51.064;16.612;2022-08-01T02:35:23;22.23;;;14.35;;
26598;SDS011;14240;51.064;16.612;2022-08-01T02:37:52;21.17;;;14.45;;
26598;SDS011;14240;51.064;16.612;2022-08-01T02:40:22;17.08;;;13.32;;
26598;SDS011;14240;51.064;16.612;2022-08-01T02:42:50;19.83;;;14.02;;
26598;SDS011;14240;51.064;16.612;2022-08-01T02:45:17;24.63;;;13.75;;
26598;SDS011;14240;51.064;16.612;2022-08-01T02:47:45;25.25;;;12.23;;
26598;SDS011;14240;51.064;16.612;2022-08-01T02:50:13;18.23;;;13.38;;
26598;SDS011;14240;51.064;16.612;2022-08-01T02:52:41;15.65;;;12.57;;
26598;SDS011;14240;51.064;16.612;2022-08-01T02:55:08;21.50;;;12.52;;
26598;SDS011;14240;51.064;16.612;2022-08-01T02:57:35;14.55;;;11.43;;
26598;SDS011;14240;51.064;16.612;2022-08-01T03:00:03;14.48;;;10.98;;
26598;SDS011;14240;51.064;16.612;2022-08-01T03:02:30;15.25;;;10.63;;
26598;SDS011;14240;51.064;16.612;2022-08-01T03:04:57;13.52;;;10.20;;
26598;SDS011;14240;51.064;16.612;2022-08-01T03:07:23;14.30;;;9.85;;
26598;SDS011;14240;51.064;16.612;2022-08-01T03:09:51;15.48;;;9.88;;
26598;SDS011;14240;51.064;16.612;2022-08-01T03:12:18;12.85;;;9.88;;
26598;SDS011;14240;51.064;16.612;2022-08-01T03:14:48;13.00;;;9.18;;
26598;SDS011;14240;51.064;16.612;2022-08-01T03:17:16;14.15;;;9.05;;
26598;SDS011;14240;51.064;16.612;2022-08-01T03:19:45;17.27;;;8.95;;
26598;SDS011;14240;51.064;16.612;2022-08-01T03:24:40;14.15;;;8.38;;
26598;SDS011;14240;51.064;16.612;2022-08-01T03:27:07;10.38;;;8.73;;
26598;SDS011;14240;51.064;16.612;2022-08-01T03:29:34;14.02;;;9.52;;
26598;SDS011;14240;51.064;16.612;2022-08-01T03:32:02;14.85;;;9.68;;
26598;SDS011;14240;51.064;16.612;2022-08-01T03:34:29;16.05;;;8.68;;
26598;SDS011;14240;51.064;16.612;2022-08-01T03:40:09;16.20;;;9.25;;
26598;SDS011;14240;51.064;16.612;2022-08-01T03:42:44;13.07;;;8.20;;
26598;SDS011;14240;51.064;16.612;2022-08-01T03:45:28;9.25;;;8.30;;
26598;SDS011;14240;51.064;16.612;2022-08-01T03:48:00;14.50;;;8.02;;
26598;SDS011;14240;51.064;16.612;2022-08-01T03:50:30;11.23;;;7.63;;
26598;SDS011;14240;51.064;16.612;2022-08-01T03:52:59;18.88;;;8.82;;
26598;SDS011;14240;51.064;16.612;2022-08-01T03:55:26;11.95;;;8.27;;
26598;SDS011;14240;51.064;16.612;2022-08-01T03:57:54;13.35;;;8.60;;
26598;SDS011;14240;51.064;16.612;2022-08-01T04:00:21;11.10;;;7.87;;
26598;SDS011;14240;51.064;16.612;2022-08-01T04:02:48;7.78;;;6.97;;
26598;SDS011;14240;51.064;16.612;2022-08-01T04:05:15;10.95;;;7.85;;
26598;SDS011;14240;51.064;16.612;2022-08-01T04:07:44;8.43;;;7.53;;
26598;SDS011;14240;51.064;16.612;2022-08-01T04:10:12;8.40;;;6.93;;
26598;SDS011;14240;51.064;16.612;2022-08-01T04:12:37;12.73;;;7.38;;
26598;SDS011;14240;51.064;16.612;2022-08-01T04:15:04;10.20;;;7.93;;
26598;SDS011;14240;51.064;16.612;2022-08-01T04:17:30;11.52;;;7.75;;
26598;SDS011;14240;51.064;16.612;2022-08-01T04:19:56;9.20;;;6.72;;
26598;SDS011;14240;51.064;16.612;2022-08-01T04:22:21;9.95;;;6.88;;
26598;SDS011;14240;51.064;16.612;2022-08-01T04:24:47;9.40;;;6.68;;
26598;SDS011;14240;51.064;16.612;2022-08-01T04:27:17;8.52;;;6.88;;
26598;SDS011;14240;51.064;16.612;2022-08-01T04:29:49;11.77;;;8.20;;
26598;SDS011;14240;51.064;16.612;2022-08-01T04:32:16;10.38;;;7.90;;
26598;SDS011;14240;51.064;16.612;2022-08-01T04:34:45;8.52;;;6.82;;
26598;SDS011;14240;51.064;16.612;2022-08-01T04:37:12;11.93;;;7.03;;
26598;SDS011;14240;51.064;16.612;2022-08-01T04:39:41;16.63;;;11.77;;
26598;SDS011;14240;51.064;16.612;2022-08-01T04:42:07;20.30;;;12.13;;
26598;SDS011;14240;51.064;16.612;2022-08-01T04:44:35;11.38;;;8.45;;
26598;SDS011;14240;51.064;16.612;2022-08-01T04:47:02;10.48;;;8.00;;
26598;SDS011;14240;51.064;16.612;2022-08-01T04:49:36;12.90;;;6.88;;
26598;SDS011;14240;51.064;16.612;2022-08-01T04:52:02;12.57;;;8.85;;
26598;SDS011;14240;51.064;16.612;2022-08-01T04:54:28;18.67;;;7.10;;
26598;SDS011;14240;51.064;16.612;2022-08-01T04:56:59;14.18;;;7.05;;
26598;SDS011;14240;51.064;16.612;2022-08-01T04:59:25;17.00;;;8.02;;
26598;SDS011;14240;51.064;16.612;2022-08-01T05:02:15;11.68;;;7.22;;
26598;SDS011;14240;51.064;16.612;2022-08-01T05:04:43;10.40;;;7.35;;
26598;SDS011;14240;51.064;16.612;2022-08-01T05:07:09;8.02;;;6.88;;
26598;SDS011;14240;51.064;16.612;2022-08-01T05:09:36;8.40;;;6.80;;
26598;SDS011;14240;51.064;16.612;2022-08-01T05:12:02;8.68;;;6.63;;
26598;SDS011;14240;51.064;16.612;2022-08-01T05:14:29;10.52;;;6.85;;
26598;SDS011;14240;51.064;16.612;2022-08-01T05:16:58;11.52;;;7.40;;
26598;SDS011;14240;51.064;16.612;2022-08-01T05:19:25;12.43;;;9.13;;
26598;SDS011;14240;51.064;16.612;2022-08-01T05:21:51;17.98;;;8.73;;
26598;SDS011;14240;51.064;16.612;2022-08-01T05:24:17;10.65;;;7.15;;
26598;SDS011;14240;51.064;16.612;2022-08-01T05:26:43;12.38;;;8.55;;
26598;SDS011;14240;51.064;16.612;2022-08-01T05:29:08;20.33;;;10.38;;
26598;SDS011;14240;51.064;16.612;2022-08-01T05:31:34;10.95;;;5.68;;
26598;SDS011;14240;51.064;16.612;2022-08-01T05:34:00;10.52;;;5.57;;
26598;SDS011;14240;51.064;16.612;2022-08-01T05:36:26;7.40;;;5.70;;
26598;SDS011;14240;51.064;16.612;2022-08-01T05:38:52;14.85;;;10.52;;
26598;SDS011;14240;51.064;16.612;2022-08-01T05:41:18;11.88;;;6.60;;
26598;SDS011;14240;51.064;16.612;2022-08-01T05:43:43;36.08;;;23.83;;
26598;SDS011;14240;51.064;16.612;2022-08-01T05:46:09;17.15;;;7.55;;
26598;SDS011;14240;51.064;16.612;2022-08-01T05:48:34;18.27;;;13.32;;
26598;SDS011;14240;51.064;16.612;2022-08-01T05:51:00;13.38;;;9.35;;
26598;SDS011;14240;51.064;16.612;2022-08-01T05:53:26;22.55;;;9.15;;
26598;SDS011;14240;51.064;16.612;2022-08-01T05:55:52;21.30;;;7.28;;
26598;SDS011;14240;51.064;16.612;2022-08-01T05:58:18;13.68;;;10.45;;
26598;SDS011;14240;51.064;16.612;2022-08-01T06:00:43;10.73;;;7.20;;
26598;SDS011;14240;51.064;16.612;2022-08-01T06:03:09;13.10;;;9.45;;
26598;SDS011;14240;51.064;16.612;2022-08-01T06:05:36;6.85;;;6.15;;
26598;SDS011;14240;51.064;16.612;2022-08-01T06:08:02;6.45;;;4.88;;
26598;SDS011;14240;51.064;16.612;2022-08-01T06:10:27;13.82;;;9.40;;
26598;SDS011;14240;51.064;16.612;2022-08-01T06:12:53;13.70;;;8.65;;
26598;SDS011;14240;51.064;16.612;2022-08-01T06:15:19;28.15;;;6.97;;
26598;SDS011;14240;51.064;16.612;2022-08-01T06:17:44;6.78;;;5.05;;
26598;SDS011;14240;51.064;16.612;2022-08-01T06:20:10;11.10;;;6.20;;
26598;SDS011;14240;51.064;16.612;2022-08-01T06:22:35;5.93;;;4.60;;
26598;SDS011;14240;51.064;16.612;2022-08-01T06:25:01;6.15;;;4.20;;
26598;SDS011;14240;51.064;16.612;2022-08-01T06:27:27;6.40;;;4.65;;
26598;SDS011;14240;51.064;16.612;2022-08-01T06:29:53;11.98;;;5.25;;
26598;SDS011;14240;51.064;16.612;2022-08-01T06:32:19;11.02;;;5.40;;
26598;SDS011;14240;51.064;16.612;2022-08-01T06:34:45;7.43;;;4.55;;
26598;SDS011;14240;51.064;16.612;2022-08-01T06:37:10;5.45;;;4.13;;
26598;SDS011;14240;51.064;16.612;2022-08-01T06:39:38;18.67;;;8.27;;
26598;SDS011;14240;51.064;16.612;2022-08-01T06:42:04;6.43;;;4.10;;
26598;SDS011;14240;51.064;16.612;2022-08-01T06:44:30;10.15;;;4.15;;
26598;SDS011;14240;51.064;16.612;2022-08-01T06:46:55;6.00;;;4.28;;
26598;SDS011;14240;51.064;16.612;2022-08-01T06:51:49;7.63;;;5.63;;
26598;SDS011;14240;51.064;16.612;2022-08-01T06:54:14;8.63;;;4.75;;
26598;SDS011;14240;51.064;16.612;2022-08-01T06:56:41;7.97;;;4.70;;
26598;SDS011;14240;51.064;16.612;2022-08-01T06:59:14;7.57;;;3.78;;
26598;SDS011;14240;51.064;16.612;2022-08-01T07:01:39;6.82;;;5.53;;
26598;SDS011;14240;51.064;16.612;2022-08-01T07:04:06;7.85;;;4.15;;
26598;SDS011;14240;51.064;16.612;2022-08-01T07:06:32;5.03;;;4.20;;
26598;SDS011;14240;51.064;16.612;2022-08-01T07:08:57;10.98;;;5.75;;
26598;SDS011;14240;51.064;16.612;2022-08-01T07:11:23;8.48;;;4.63;;
26598;SDS011;14240;51.064;16.612;2022-08-01T07:13:49;5.57;;;4.40;;
26598;SDS011;14240;51.064;16.612;2022-08-01T07:16:15;5.22;;;4.43;;
26598;SDS011;14240;51.064;16.612;2022-08-01T07:18:41;7.68;;;4.78;;
26598;SDS011;14240;51.064;16.612;2022-08-01T07:21:07;10.57;;;5.03;;
26598;SDS011;14240;51.064;16.612;2022-08-01T07:23:33;7.60;;;3.92;;
26598;SDS011;14240;51.064;16.612;2022-08-01T07:25:59;4.65;;;4.03;;
26598;SDS011;14240;51.064;16.612;2022-08-01T07:28:26;8.88;;;4.28;;
26598;SDS011;14240;51.064;16.612;2022-08-01T07:30:52;5.90;;;4.43;;
26598;SDS011;14240;51.064;16.612;2022-08-01T07:33:18;7.57;;;3.67;;
26598;SDS011;14240;51.064;16.612;2022-08-01T07:35:43;6.75;;;4.70;;
26598;SDS011;14240;51.064;16.612;2022-08-01T07:38:09;7.18;;;4.28;;
26598;SDS011;14240;51.064;16.612;2022-08-01T07:40:35;4.25;;;3.70;;
26598;SDS011;14240;51.064;16.612;2022-08-01T07:43:01;7.88;;;4.00;;
26598;SDS011;14240;51.064;16.612;2022-08-01T07:45:27;6.40;;;4.60;;
26598;SDS011;14240;51.064;16.612;2022-08-01T07:47:53;4.43;;;3.97;;
26598;SDS011;14240;51.064;16.612;2022-08-01T07:50:19;6.82;;;4.75;;
26598;SDS011;14240;51.064;16.612;2022-08-01T07:52:44;6.15;;;4.32;;
26598;SDS011;14240;51.064;16.612;2022-08-01T07:55:11;7.20;;;4.75;;
26598;SDS011;14240;51.064;16.612;2022-08-01T07:57:37;5.13;;;4.63;;
26598;SDS011;14240;51.064;16.612;2022-08-01T08:00:03;7.97;;;4.95;;
26598;SDS011;14240;51.064;16.612;2022-08-01T08:02:31;9.70;;;5.10;;
26598;SDS011;14240;51.064;16.612;2022-08-01T08:04:57;7.45;;;5.18;;
26598;SDS011;14240;51.064;16.612;2022-08-01T08:07:22;8.60;;;4.85;;
26598;SDS011;14240;51.064;16.612;2022-08-01T08:09:48;9.50;;;5.13;;
26598;SDS011;14240;51.064;16.612;2022-08-01T08:12:14;6.78;;;4.65;;
26598;SDS011;14240;51.064;16.612;2022-08-01T08:14:39;6.18;;;4.40;;
26598;SDS011;14240;51.064;16.612;2022-08-01T08:17:05;10.52;;;5.68;;
26598;SDS011;14240;51.064;16.612;2022-08-01T08:19:31;7.63;;;4.78;;
26598;SDS011;14240;51.064;16.612;2022-08-01T08:21:58;9.80;;;5.20;;
26598;SDS011;14240;51.064;16.612;2022-08-01T08:24:25;8.18;;;6.05;;
26598;SDS011;14240;51.064;16.612;2022-08-01T08:26:52;7.82;;;5.45;;
26598;SDS011;14240;51.064;16.612;2022-08-01T08:29:20;11.63;;;6.55;;
26598;SDS011;14240;51.064;16.612;2022-08-01T08:31:46;8.27;;;6.40;;
26598;SDS011;14240;51.064;16.612;2022-08-01T08:34:12;10.50;;;6.32;;
26598;SDS011;14240;51.064;16.612;2022-08-01T08:36:38;7.18;;;5.65;;
26598;SDS011;14240;51.064;16.612;2022-08-01T08:39:04;6.63;;;5.20;;
26598;SDS011;14240;51.064;16.612;2022-08-01T08:41:31;7.68;;;6.15;;
26598;SDS011;14240;51.064;16.612;2022-08-01T08:43:57;10.02;;;6.20;;
26598;SDS011;14240;51.064;16.612;2022-08-01T08:46:25;8.27;;;6.22;;
26598;SDS011;14240;51.064;16.612;2022-08-01T08:48:52;8.30;;;6.35;;
26598;SDS011;14240;51.064;16.612;2022-08-01T08:51:18;9.40;;;5.90;;
26598;SDS011;14240;51.064;16.612;2022-08-01T08:53:46;10.75;;;5.55;;
26598;SDS011;14240;51.064;16.612;2022-08-01T08:56:13;7.20;;;5.05;;
26598;SDS011;14240;51.064;16.612;2022-08-01T08:58:48;7.23;;;4.80;;
26598;SDS011;14240;51.064;16.612;2022-08-01T09:01:15;10.30;;;5.30;;
26598;SDS011;14240;51.064;16.612;2022-08-01T09:03:42;7.57;;;4.53;;
26598;SDS011;14240;51.064;16.612;2022-08-01T09:06:08;6.65;;;5.10;;
26598;SDS011;14240;51.064;16.612;2022-08-01T09:08:34;8.07;;;4.57;;
26598;SDS011;14240;51.064;16.612;2022-08-01T09:11:00;15.73;;;6.22;;
26598;SDS011;14240;51.064;16.612;2022-08-01T09:13:26;8.02;;;4.45;;
26598;SDS011;14240;51.064;16.612;2022-08-01T09:15:53;5.05;;;4.15;;
26598;SDS011;14240;51.064;16.612;2022-08-01T09:21:06;6.85;;;4.57;;
26598;SDS011;14240;51.064;16.612;2022-08-01T09:26:11;8.75;;;4.75;;
26598;SDS011;14240;51.064;16.612;2022-08-01T09:28:39;9.60;;;4.88;;
26598;SDS011;14240;51.064;16.612;2022-08-01T09:31:06;6.25;;;4.72;;
26598;SDS011;14240;51.064;16.612;2022-08-01T09:33:52;8.82;;;5.18;;
26598;SDS011;14240;51.064;16.612;2022-08-01T09:36:24;9.70;;;4.40;;
26598;SDS011;14240;51.064;16.612;2022-08-01T09:38:53;6.57;;;4.80;;
26598;SDS011;14240;51.064;16.612;2022-08-01T09:41:30;7.80;;;4.68;;
26598;SDS011;14240;51.064;16.612;2022-08-01T09:43:56;5.10;;;4.50;;
26598;SDS011;14240;51.064;16.612;2022-08-01T09:46:22;6.07;;;4.85;;
26598;SDS011;14240;51.064;16.612;2022-08-01T09:48:59;6.43;;;4.97;;
26598;SDS011;14240;51.064;16.612;2022-08-01T09:51:27;6.00;;;5.07;;
26598;SDS011;14240;51.064;16.612;2022-08-01T09:53:54;9.65;;;5.68;;
26598;SDS011;14240;51.064;16.612;2022-08-01T09:56:21;7.95;;;5.68;;
26598;SDS011;14240;51.064;16.612;2022-08-01T09:58:51;7.03;;;5.55;;
26598;SDS011;14240;51.064;16.612;2022-08-01T10:01:20;6.72;;;5.35;;
26598;SDS011;14240;51.064;16.612;2022-08-01T10:03:47;8.43;;;5.28;;
26598;SDS011;14240;51.064;16.612;2022-08-01T10:06:33;9.70;;;4.72;;
26598;SDS011;14240;51.064;16.612;2022-08-01T10:08:58;6.65;;;5.10;;
26598;SDS011;14240;51.064;16.612;2022-08-01T10:11:24;7.00;;;5.28;;
26598;SDS011;14240;51.064;16.612;2022-08-01T10:13:50;8.45;;;5.50;;
26598;SDS011;14240;51.064;16.612;2022-08-01T10:16:17;5.87;;;4.47;;
26598;SDS011;14240;51.064;16.612;2022-08-01T10:18:44;5.57;;;5.00;;
26598;SDS011;14240;51.064;16.612;2022-08-01T10:21:10;8.30;;;4.97;;
26598;SDS011;14240;51.064;16.612;2022-08-01T10:23:37;6.55;;;4.72;;
26598;SDS011;14240;51.064;16.612;2022-08-01T10:26:04;8.25;;;5.03;;
26598;SDS011;14240;51.064;16.612;2022-08-01T10:33:23;6.68;;;4.30;;
26598;SDS011;14240;51.064;16.612;2022-08-01T10:35:52;5.47;;;4.40;;
26598;SDS011;14240;51.064;16.612;2022-08-01T10:38:18;4.65;;;4.07;;
26598;SDS011;14240;51.064;16.612;2022-08-01T10:40:44;5.03;;;4.15;;
26598;SDS011;14240;51.064;16.612;2022-08-01T10:43:10;16.42;;;4.65;;
26598;SDS011;14240;51.064;16.612;2022-08-01T10:45:37;6.10;;;4.22;;
26598;SDS011;14240;51.064;16.612;2022-08-01T10:50:48;20.17;;;5.43;;
26598;SDS011;14240;51.064;16.612;2022-08-01T10:53:17;4.15;;;3.67;;
26598;SDS011;14240;51.064;16.612;2022-08-01T10:55:46;6.88;;;4.05;;
26598;SDS011;14240;51.064;16.612;2022-08-01T10:58:34;8.40;;;5.70;;
26598;SDS011;14240;51.064;16.612;2022-08-01T11:03:41;4.40;;;3.90;;
26598;SDS011;14240;51.064;16.612;2022-08-01T11:06:15;6.65;;;3.58;;
26598;SDS011;14240;51.064;16.612;2022-08-01T11:08:42;8.48;;;3.75;;
26598;SDS011;14240;51.064;16.612;2022-08-01T11:11:16;6.57;;;4.00;;
26598;SDS011;14240;51.064;16.612;2022-08-01T11:16:32;4.88;;;3.50;;
26598;SDS011;14240;51.064;16.612;2022-08-01T11:19:00;4.45;;;3.88;;
26598;SDS011;14240;51.064;16.612;2022-08-01T11:22:12;3.67;;;3.35;;
26598;SDS011;14240;51.064;16.612;2022-08-01T11:27:20;5.03;;;3.67;;
26598;SDS011;14240;51.064;16.612;2022-08-01T11:32:43;5.13;;;4.18;;
26598;SDS011;14240;51.064;16.612;2022-08-01T11:35:11;4.47;;;4.07;;
26598;SDS011;14240;51.064;16.612;2022-08-01T11:37:37;7.43;;;4.68;;
26598;SDS011;14240;51.064;16.612;2022-08-01T11:40:20;6.75;;;4.18;;
26598;SDS011;14240;51.064;16.612;2022-08-01T11:48:17;4.40;;;3.85;;
26598;SDS011;14240;51.064;16.612;2022-08-01T11:50:43;4.70;;;3.63;;
26598;SDS011;14240;51.064;16.612;2022-08-01T11:53:09;5.07;;;3.08;;
26598;SDS011;14240;51.064;16.612;2022-08-01T11:55:34;4.53;;;3.30;;
26598;SDS011;14240;51.064;16.612;2022-08-01T12:00:26;5.38;;;3.40;;
26598;SDS011;14240;51.064;16.612;2022-08-01T12:05:28;5.68;;;3.30;;
26598;SDS011;14240;51.064;16.612;2022-08-01T12:07:54;5.22;;;3.85;;
26598;SDS011;14240;51.064;16.612;2022-08-01T12:10:21;6.23;;;3.33;;
26598;SDS011;14240;51.064;16.612;2022-08-01T12:13:07;4.47;;;3.70;;
26598;SDS011;14240;51.064;16.612;2022-08-01T12:15:35;5.33;;;3.93;;
26598;SDS011;14240;51.064;16.612;2022-08-01T12:18:06;7.60;;;3.55;;
26598;SDS011;14240;51.064;16.612;2022-08-01T12:20:32;4.85;;;4.35;;
26598;SDS011;14240;51.064;16.612;2022-08-01T12:23:00;8.98;;;4.75;;
26598;SDS011;14240;51.064;16.612;2022-08-01T12:25:28;6.45;;;4.68;;
26598;SDS011;14240;51.064;16.612;2022-08-01T12:27:54;7.93;;;5.70;;
26598;SDS011;14240;51.064;16.612;2022-08-01T12:30:22;7.10;;;5.00;;
26598;SDS011;14240;51.064;16.612;2022-08-01T12:32:48;6.60;;;5.32;;
26598;SDS011;14240;51.064;16.612;2022-08-01T12:35:15;5.53;;;5.03;;
26598;SDS011;14240;51.064;16.612;2022-08-01T12:37:44;6.40;;;3.97;;
26598;SDS011;14240;51.064;16.612;2022-08-01T12:40:21;5.13;;;4.60;;
26598;SDS011;14240;51.064;16.612;2022-08-01T12:42:52;5.03;;;4.53;;
26598;SDS011;14240;51.064;16.612;2022-08-01T12:45:21;5.35;;;4.13;;
26598;SDS011;14240;51.064;16.612;2022-08-01T12:48:08;5.05;;;4.55;;
26598;SDS011;14240;51.064;16.612;2022-08-01T12:50:37;11.05;;;5.70;;
26598;SDS011;14240;51.064;16.612;2022-08-01T12:53:04;5.82;;;4.90;;
26598;SDS011;14240;51.064;16.612;2022-08-01T12:55:31;6.10;;;5.60;;
26598;SDS011;14240;51.064;16.612;2022-08-01T12:58:04;7.75;;;5.68;;
26598;SDS011;14240;51.064;16.612;2022-08-01T13:00:36;6.25;;;5.40;;
26598;SDS011;14240;51.064;16.612;2022-08-01T13:03:05;6.00;;;5.30;;
26598;SDS011;14240;51.064;16.612;2022-08-01T13:11:00;7.57;;;6.88;;
26598;SDS011;14240;51.064;16.612;2022-08-01T13:13:37;6.20;;;5.60;;
26598;SDS011;14240;51.064;16.612;2022-08-01T13:16:14;6.38;;;5.18;;
26598;SDS011;14240;51.064;16.612;2022-08-01T13:18:48;4.43;;;4.10;;
26598;SDS011;14240;51.064;16.612;2022-08-01T13:21:18;4.40;;;4.00;;
26598;SDS011;14240;51.064;16.612;2022-08-01T13:26:47;3.85;;;3.55;;
26598;SDS011;14240;51.064;16.612;2022-08-01T13:29:17;4.55;;;4.03;;
26598;SDS011;14240;51.064;16.612;2022-08-01T13:31:45;5.10;;;4.25;;
26598;SDS011;14240;51.064;16.612;2022-08-01T13:34:12;6.75;;;3.97;;
26598;SDS011;14240;51.064;16.612;2022-08-01T13:36:38;5.50;;;4.32;;
26598;SDS011;14240;51.064;16.612;2022-08-01T13:39:05;8.00;;;4.70;;
26598;SDS011;14240;51.064;16.612;2022-08-01T13:41:49;3.80;;;3.50;;
26598;SDS011;14240;51.064;16.612;2022-08-01T13:44:15;5.47;;;4.55;;
26598;SDS011;14240;51.064;16.612;2022-08-01T13:46:41;5.35;;;4.28;;
26598;SDS011;14240;51.064;16.612;2022-08-01T13:49:08;6.50;;;3.25;;
26598;SDS011;14240;51.064;16.612;2022-08-01T13:51:35;6.45;;;4.57;;
26598;SDS011;14240;51.064;16.612;2022-08-01T13:54:02;5.45;;;3.95;;
26598;SDS011;14240;51.064;16.612;2022-08-01T13:56:29;4.68;;;3.42;;
26598;SDS011;14240;51.064;16.612;2022-08-01T13:58:55;3.10;;;2.80;;
26598;SDS011;14240;51.064;16.612;2022-08-01T14:01:21;3.57;;;3.27;;
26598;SDS011;14240;51.064;16.612;2022-08-01T14:03:47;3.10;;;2.72;;
26598;SDS011;14240;51.064;16.612;2022-08-01T14:06:14;7.18;;;2.88;;
26598;SDS011;14240;51.064;16.612;2022-08-01T14:08:41;3.45;;;3.15;;
26598;SDS011;14240;51.064;16.612;2022-08-01T14:11:07;3.70;;;2.50;;
26598;SDS011;14240;51.064;16.612;2022-08-01T14:13:33;2.97;;;2.70;;
26598;SDS011;14240;51.064;16.612;2022-08-01T14:16:01;2.78;;;2.55;;
26598;SDS011;14240;51.064;16.612;2022-08-01T14:18:27;6.88;;;2.55;;
26598;SDS011;14240;51.064;16.612;2022-08-01T14:20:53;3.45;;;2.63;;
26598;SDS011;14240;51.064;16.612;2022-08-01T14:23:18;3.15;;;2.85;;
26598;SDS011;14240;51.064;16.612;2022-08-01T14:25:44;3.67;;;2.80;;
26598;SDS011;14240;51.064;16.612;2022-08-01T14:28:10;4.60;;;2.10;;
26598;SDS011;14240;51.064;16.612;2022-08-01T14:30:35;2.67;;;2.47;;
26598;SDS011;14240;51.064;16.612;2022-08-01T14:33:01;3.45;;;2.38;;
26598;SDS011;14240;51.064;16.612;2022-08-01T14:35:27;3.17;;;2.47;;
26598;SDS011;14240;51.064;16.612;2022-08-01T14:37:53;6.28;;;2.70;;
26598;SDS011;14240;51.064;16.612;2022-08-01T14:40:18;3.65;;;2.65;;
26598;SDS011;14240;51.064;16.612;2022-08-01T14:42:44;2.72;;;2.47;;
26598;SDS011;14240;51.064;16.612;2022-08-01T14:45:10;3.17;;;2.88;;
26598;SDS011;14240;51.064;16.612;2022-08-01T14:47:37;3.10;;;2.65;;
26598;SDS011;14240;51.064;16.612;2022-08-01T14:50:05;3.63;;;2.50;;
26598;SDS011;14240;51.064;16.612;2022-08-01T14:52:33;2.85;;;2.58;;
26598;SDS011;14240;51.064;16.612;2022-08-01T14:54:59;2.72;;;2.47;;
26598;SDS011;14240;51.064;16.612;2022-08-01T14:57:25;3.80;;;2.58;;
26598;SDS011;14240;51.064;16.612;2022-08-01T14:59:51;3.10;;;2.80;;
26598;SDS011;14240;51.064;16.612;2022-08-01T15:02:17;2.88;;;2.13;;
26598;SDS011;14240;51.064;16.612;2022-08-01T15:04:43;5.32;;;2.30;;
26598;SDS011;14240;51.064;16.612;2022-08-01T15:07:10;2.63;;;2.25;;
26598;SDS011;14240;51.064;16.612;2022-08-01T15:09:36;3.80;;;2.00;;
26598;SDS011;14240;51.064;16.612;2022-08-01T15:12:02;4.18;;;2.10;;
26598;SDS011;14240;51.064;16.612;2022-08-01T15:14:28;2.47;;;1.92;;
26598;SDS011;14240;51.064;16.612;2022-08-01T15:17:12;3.42;;;2.22;;
26598;SDS011;14240;51.064;16.612;2022-08-01T15:19:38;5.75;;;1.85;;
26598;SDS011;14240;51.064;16.612;2022-08-01T15:22:04;2.13;;;1.92;;
26598;SDS011;14240;51.064;16.612;2022-08-01T15:24:30;1.42;;;1.33;;
26598;SDS011;14240;51.064;16.612;2022-08-01T15:26:56;3.65;;;2.10;;
26598;SDS011;14240;51.064;16.612;2022-08-01T15:29:21;2.65;;;1.90;;
26598;SDS011;14240;51.064;16.612;2022-08-01T15:31:47;3.00;;;1.60;;
26598;SDS011;14240;51.064;16.612;2022-08-01T15:34:12;3.17;;;1.85;;
26598;SDS011;14240;51.064;16.612;2022-08-01T15:36:38;2.45;;;1.35;;